Time;durP1;ratioP1;P1;durP2;ratioP2;P2;SDS_P1;SDS_P2;PMS_P1;PMS_P2;Temp;Humidity;BMP_temperature;BMP_pressure;BME280_temperature;BME280_humidity;BME280_pressure;Samples;Min_cycle;Max_cycle;Signal;HPM_P1;HPM_P2
2022/02/12 00:02:05;;;;;;;;;;;2.40;99.90;;;-0.34;100.00;102336.75;5052424;28;20439;-87
2022/02/12 00:04:33;;;;;;;;;;;2.50;99.90;;;-0.38;100.00;102335.19;5051102;28;20472;-86
2022/02/12 00:07:00;;;;;;;;;;;2.40;99.90;;;-0.38;100.00;102340.53;5052724;28;19935;-86
2022/02/12 00:09:27;;;;;;;;;;;2.40;99.90;;;-0.42;100.00;102335.34;5051937;28;20055;-86
2022/02/12 00:11:55;;;;;;;;;;;2.40;99.90;;;-0.51;100.00;102330.38;5052271;28;20019;-87
2022/02/12 00:14:22;;;;;;;;;;;2.40;99.90;;;-0.44;100.00;102328.28;5052404;28;19933;-86
2022/02/12 00:16:49;;;;;;;;;;;2.40;99.90;;;-0.47;100.00;102331.97;5052146;28;19956;-87
2022/02/12 00:19:16;;;;;;;;;;;2.40;99.90;;;-0.47;100.00;102323.97;5052246;28;20031;-86
2022/02/12 00:21:44;;;;;;;;;;;2.40;99.90;;;-0.53;100.00;102320.66;5050410;28;20837;-87
2022/02/12 00:24:11;;;;;;;;;;;2.30;99.90;;;-0.57;100.00;102332.44;5050614;28;20040;-87
2022/02/12 00:26:39;;;;;;;;;;;2.40;99.90;;;-0.56;100.00;102331.53;5032238;28;19991;-87
2022/02/12 00:29:07;;;;;;;;;;;2.30;99.90;;;-0.61;100.00;102324.56;5050005;28;20311;-87
2022/02/12 00:31:34;;;;;;;;;;;2.30;99.90;;;-0.55;100.00;102328.78;5051826;28;20312;-87
2022/02/12 00:34:01;;;;;;;;;;;2.30;99.90;;;-0.55;100.00;102318.09;5052225;28;19974;-85
2022/02/12 00:36:28;;;;;;;;;;;2.20;99.90;;;-0.57;100.00;102313.72;5052020;28;20425;-86
2022/02/12 00:38:56;;;;;;;;;;;2.20;99.90;;;-0.61;100.00;102311.22;5050882;28;19928;-87
2022/02/12 00:41:23;;;;;;;;;;;2.20;99.90;;;-0.61;100.00;102323.69;5052041;28;19986;-86
2022/02/12 00:43:50;;;;;;;;;;;2.20;99.90;;;-0.70;100.00;102313.44;5049441;28;19970;-86
2022/02/12 00:46:18;;;;;;;;;;;2.20;99.90;;;-0.73;100.00;102314.41;5053747;28;19936;-86
2022/02/12 00:48:45;;;;;;;;;;;2.20;99.90;;;-0.79;100.00;102318.22;5052037;28;20016;-87
2022/02/12 00:51:13;;;;;;;;;;;2.30;99.90;;;-0.72;100.00;102317.94;5051702;28;19963;-86
2022/02/12 00:53:41;;;;;;;;;;;2.20;99.90;;;-0.81;100.00;102314.75;5051112;28;19932;-87
2022/02/12 00:56:09;;;;;;;;;;;2.10;99.90;;;-0.76;100.00;102313.66;5052008;28;19982;-87
2022/02/12 00:58:39;;;;;;;;;;;2.10;99.90;;;-0.80;100.00;102321.84;5049959;28;20686;-87
2022/02/12 01:01:06;;;;;;;;;;;2.10;99.90;;;-0.77;100.00;102314.63;5039296;28;19936;-87
2022/02/12 01:03:34;;;;;;;;;;;2.10;99.90;;;-0.77;100.00;102317.28;5051825;28;19925;-87
2022/02/12 01:06:01;;;;;;;;;;;2.10;99.90;;;-0.70;100.00;102308.94;5051872;28;19928;-87
2022/02/12 01:08:28;;;;;;;;;;;2.10;99.90;;;-0.66;100.00;102309.69;5049746;28;19929;-85
2022/02/12 01:10:55;;;;;;;;;;;2.10;99.90;;;-0.70;100.00;102318.78;5051025;28;19928;-86
2022/02/12 01:13:23;;;;;;;;;;;2.00;99.90;;;-0.81;100.00;102321.91;5052513;28;19932;-87
2022/02/12 01:15:51;;;;;;;;;;;2.00;99.90;;;-0.80;100.00;102319.16;5051491;28;20023;-87
2022/02/12 01:18:18;;;;;;;;;;;2.00;99.90;;;-0.81;100.00;102309.41;5049404;28;19929;-86
2022/02/12 01:20:47;;;;;;;;;;;2.00;99.90;;;-0.82;100.00;102318.38;5049695;28;20039;-87
2022/02/12 01:23:14;;;;;;;;;;;2.00;99.90;;;-0.85;100.00;102313.13;5050609;28;19986;-87
2022/02/12 01:25:41;;;;;;;;;;;2.00;99.90;;;-0.92;100.00;102317.00;5051357;28;19982;-87
2022/02/12 01:28:09;;;;;;;;;;;1.90;99.90;;;-0.87;100.00;102317.69;5050605;28;19933;-87
2022/02/12 01:30:37;;;;;;;;;;;1.90;99.90;;;-0.90;100.00;102317.81;5050706;28;19943;-86
2022/02/12 01:33:04;;;;;;;;;;;1.90;99.90;;;-0.87;100.00;102315.00;5051312;28;19933;-86
2022/02/12 01:35:31;;;;;;;;;;;2.00;99.90;;;-0.87;100.00;102306.13;5051214;28;19933;-86
2022/02/12 01:37:58;;;;;;;;;;;1.90;99.90;;;-0.86;100.00;102303.38;5050847;28;19929;-87
2022/02/12 01:40:27;;;;;;;;;;;1.90;99.90;;;-0.80;100.00;102303.13;5050544;28;19986;-86
2022/02/12 01:42:54;;;;;;;;;;;1.90;99.90;;;-0.66;100.00;102302.50;5051098;28;19924;-86
2022/02/12 01:45:22;;;;;;;;;;;1.90;99.90;;;-0.53;100.00;102294.81;5050734;28;19935;-86
2022/02/12 01:47:50;;;;;;;;;;;2.00;99.90;;;-0.49;100.00;102291.06;5048883;28;19925;-87
2022/02/12 01:50:17;;;;;;;;;;;2.00;99.90;;;-0.52;100.00;102290.34;5050120;28;20392;-87
2022/02/12 01:52:45;;;;;;;;;;;2.00;99.90;;;-0.48;100.00;102292.78;5056209;28;19971;-87
2022/02/12 01:55:12;;;;;;;;;;;2.00;99.90;;;-0.39;100.00;102286.16;5049135;28;19929;-86
2022/02/12 01:57:39;;;;;;;;;;;2.10;99.90;;;-0.37;100.00;102288.78;5050681;28;20229;-86
2022/02/12 02:00:09;;;;;;;;;;;2.10;99.90;;;-0.37;100.00;102283.44;5050508;28;19929;-87
2022/02/12 02:02:40;;;;;;;;;;;2.10;99.90;;;-0.47;100.00;102281.16;5050231;28;19924;-86
2022/02/12 02:05:10;;;;;;;;;;;2.10;99.90;;;-0.55;100.00;102277.97;5050268;28;19928;-87
2022/02/12 02:07:37;;;;;;;;;;;2.10;99.90;;;-0.68;100.00;102274.97;5048677;28;20308;-87
2022/02/12 02:10:06;;;;;;;;;;;2.10;99.90;;;-0.73;100.00;102273.44;5049976;28;19951;-87
2022/02/12 02:12:33;;;;;;;;;;;2.10;99.90;;;-0.74;100.00;102277.03;5049758;28;19929;-86
2022/02/12 02:15:01;;;;;;;;;;;2.10;99.90;;;-0.76;100.00;102266.44;5049273;28;19935;-86
2022/02/12 02:17:28;;;;;;;;;;;2.00;99.90;;;-0.76;100.00;102265.56;5049849;28;19928;-86
2022/02/12 02:19:56;;;;;;;;;;;2.00;99.90;;;-0.79;100.00;102262.06;5048145;28;20022;-86
2022/02/12 02:22:29;;;;;;;;;;;2.00;99.90;;;-0.84;100.00;102253.41;5050359;28;20373;-86
2022/02/12 02:24:58;;;;;;;;;;;2.00;99.90;;;-0.86;100.00;102254.41;5049929;28;19932;-87
2022/02/12 02:27:28;;;;;;;;;;;2.00;99.90;;;-0.90;100.00;102255.47;5049843;28;19929;-89
2022/02/12 02:29:56;;;;;;;;;;;1.90;99.90;;;-0.92;100.00;102255.53;5049416;28;19934;-87
2022/02/12 02:32:23;;;;;;;;;;;1.90;99.90;;;-0.97;100.00;102257.56;5048805;28;19932;-86
2022/02/12 02:34:51;;;;;;;;;;;1.90;99.90;;;-1.01;100.00;102266.63;5048191;28;20299;-86
2022/02/12 02:37:19;;;;;;;;;;;1.90;99.90;;;-1.08;100.00;102259.84;5049740;28;19967;-86
2022/02/12 02:39:47;;;;;;;;;;;1.90;99.90;;;-1.09;100.00;102248.25;5049275;28;20387;-86
2022/02/12 02:42:15;;;;;;;;;;;1.90;99.90;;;-1.07;100.00;102257.06;5049239;28;19929;-86
2022/02/12 02:44:42;;;;;;;;;;;1.80;99.90;;;-1.06;100.00;102255.28;5048466;28;19971;-88
2022/02/12 02:49:50;;;;;;;;;;;1.80;99.90;;;-1.02;100.00;102259.56;5048528;28;19928;-87
2022/02/12 02:57:47;;;;;;;;;;;1.90;99.90;;;-1.11;100.00;102251.94;5048749;28;19935;-87
2022/02/12 03:00:15;;;;;;;;;;;1.70;99.90;;;-1.10;100.00;102253.69;5049047;28;19929;-86
2022/02/12 03:02:43;;;;;;;;;;;1.70;99.90;;;-1.13;100.00;102245.78;5049109;28;20020;-87
2022/02/12 03:05:10;;;;;;;;;;;1.70;99.90;;;-1.12;100.00;102242.16;5049399;28;19928;-87
2022/02/12 03:07:38;;;;;;;;;;;1.70;99.90;;;-1.13;100.00;102235.97;5048946;28;19994;-86
2022/02/12 03:10:08;;;;;;;;;;;1.70;99.90;;;-1.11;100.00;102231.44;5047535;28;19930;-87
2022/02/12 03:12:35;;;;;;;;;;;1.70;99.90;;;-1.14;100.00;102233.34;5048606;28;19935;-87
2022/02/12 03:15:04;;;;;;;;;;;1.70;99.90;;;-1.26;100.00;102230.28;5051373;28;19933;-86
2022/02/12 03:17:32;;;;;;;;;;;1.60;99.90;;;-1.29;100.00;102225.09;5048313;28;19982;-87
2022/02/12 03:19:59;;;;;;;;;;;1.60;99.90;;;-1.26;100.00;102227.59;5048451;28;19928;-85
2022/02/12 03:22:26;;;;;;;;;;;1.60;99.90;;;-1.20;100.00;102223.81;5047517;28;20396;-86
2022/02/12 03:24:53;;;;;;;;;;;1.60;99.90;;;-1.25;100.00;102210.66;5047214;28;19929;-86
2022/02/12 03:27:20;;;;;;;;;;;1.50;99.90;;;-1.17;100.00;102210.31;5047635;28;19928;-87
2022/02/12 03:29:47;;;;;;;;;;;1.50;99.90;;;-1.19;100.00;102209.53;5048560;28;19994;-88
2022/02/12 03:32:15;;;;;;;;;;;1.50;99.90;;;-1.25;100.00;102221.34;5048918;28;19971;-87
2022/02/12 03:34:42;;;;;;;;;;;1.50;99.90;;;-1.21;100.00;102220.28;5047413;28;19968;-85
2022/02/12 03:37:09;;;;;;;;;;;1.60;99.90;;;-1.19;100.00;102207.72;5048671;28;19928;-86
2022/02/12 03:39:36;;;;;;;;;;;1.50;99.90;;;-1.15;100.00;102212.94;5047382;28;20031;-86
2022/02/12 03:42:03;;;;;;;;;;;1.50;99.90;;;-1.25;100.00;102220.50;5047660;28;20027;-86
2022/02/12 03:44:30;;;;;;;;;;;1.50;99.90;;;-1.27;100.00;102207.19;5048522;28;19925;-86
2022/02/12 03:46:58;;;;;;;;;;;1.50;99.90;;;-1.35;100.00;102204.00;5047849;28;19960;-86
2022/02/12 03:49:26;;;;;;;;;;;1.50;99.90;;;-1.32;100.00;102209.19;5048255;28;19935;-87
2022/02/12 03:51:53;;;;;;;;;;;1.50;99.90;;;-1.32;100.00;102209.19;5048264;28;19975;-86
2022/02/12 03:54:20;;;;;;;;;;;1.50;99.90;;;-1.32;100.00;102197.63;5047072;28;19924;-86
2022/02/12 03:56:47;;;;;;;;;;;1.40;99.90;;;-1.31;100.00;102200.25;5048658;28;20039;-87
2022/02/12 03:59:14;;;;;;;;;;;1.40;99.90;;;-1.40;100.00;102205.97;5048217;28;20023;-86
2022/02/12 04:01:41;;;;;;;;;;;1.40;99.90;;;-1.49;100.00;102199.22;5048228;28;20423;-87
2022/02/12 04:04:08;;;;;;;;;;;1.40;99.90;;;-1.49;100.00;102199.22;5048682;28;19938;-85
2022/02/12 04:06:37;;;;;;;;;;;1.40;99.90;;;-1.48;100.00;102194.78;5048556;28;20399;-86
2022/02/12 04:09:04;;;;;;;;;;;1.30;99.90;;;-1.45;100.00;102194.63;5047373;28;19924;-86
2022/02/12 04:11:31;;;;;;;;;;;1.30;99.90;;;-1.51;100.00;102184.22;5048485;28;19931;-86
2022/02/12 04:13:58;;;;;;;;;;;1.30;99.90;;;-1.40;100.00;102190.81;5048462;28;19968;-86
2022/02/12 04:16:25;;;;;;;;;;;1.30;99.90;;;-1.38;100.00;102185.41;5048480;28;19960;-86
2022/02/12 04:18:52;;;;;;;;;;;1.30;99.90;;;-1.36;100.00;102182.69;5047088;28;19929;-86
2022/02/12 04:21:19;;;;;;;;;;;1.30;99.90;;;-1.36;100.00;102175.53;5047169;28;20399;-86
2022/02/12 04:23:48;;;;;;;;;;;1.40;99.90;;;-1.38;100.00;102169.41;5048960;28;19951;-86
2022/02/12 04:26:15;;;;;;;;;;;1.40;99.90;;;-1.42;100.00;102166.00;5047388;28;19936;-86
2022/02/12 04:28:42;;;;;;;;;;;1.40;99.90;;;-1.39;100.00;102164.97;5048626;28;20044;-87
2022/02/12 04:31:09;;;;;;;;;;;1.40;99.90;;;-1.40;100.00;102171.28;5052584;28;20011;-86
2022/02/12 04:33:37;;;;;;;;;;;1.40;99.90;;;-1.41;100.00;102158.84;5052281;28;20019;-86
2022/02/12 04:36:05;;;;;;;;;;;1.30;99.90;;;-1.42;100.00;102166.00;5054903;28;19964;-86
2022/02/12 04:38:32;;;;;;;;;;;1.30;99.90;;;-1.46;100.00;102156.38;5076295;28;19944;-86
2022/02/12 04:41:03;;;;;;;;;;;1.30;99.90;;;-1.46;100.00;102160.84;5077256;28;19913;-86
2022/02/12 04:43:30;;;;;;;;;;;1.30;99.90;;;-1.48;100.00;102158.25;5070493;28;19929;-86
2022/02/12 04:45:57;;;;;;;;;;;1.30;99.90;;;-1.44;100.00;102161.66;5052306;28;19935;-86
2022/02/12 04:48:24;;;;;;;;;;;1.30;99.90;;;-1.40;100.00;102157.91;5041933;28;19929;-85
2022/02/12 04:50:51;;;;;;;;;;;1.30;99.90;;;-1.46;100.00;102151.03;5051195;28;19955;-86
2022/02/12 04:53:18;;;;;;;;;;;1.20;99.90;;;-1.51;100.00;102149.50;5051304;28;19990;-86
2022/02/12 04:55:45;;;;;;;;;;;1.20;99.90;;;-1.48;100.00;102149.38;5051914;28;19929;-86
2022/02/12 04:58:13;;;;;;;;;;;1.20;99.90;;;-1.47;100.00;102145.75;5051479;28;19929;-91
2022/02/12 05:00:41;;;;;;;;;;;1.20;99.90;;;-1.46;100.00;102145.69;5051511;28;19929;-88
2022/02/12 05:03:08;;;;;;;;;;;1.20;99.90;;;-1.55;100.00;102142.56;5051893;28;19933;-88
2022/02/12 05:05:36;;;;;;;;;;;1.20;99.90;;;-1.60;100.00;102146.31;5070330;28;19925;-88
2022/02/12 05:08:04;;;;;;;;;;;1.20;99.90;;;-1.63;100.00;102145.56;5060280;28;19928;-89
2022/02/12 05:10:31;;;;;;;;;;;1.20;99.90;;;-1.62;100.00;102149.94;5051642;28;19975;-88
2022/02/12 05:12:59;;;;;;;;;;;1.20;99.90;;;-1.62;100.00;102150.84;5050755;28;19940;-88
2022/02/12 05:15:27;;;;;;;;;;;1.20;99.90;;;-1.64;100.00;102152.72;5051531;28;20316;-89
2022/02/12 05:17:54;;;;;;;;;;;1.20;99.90;;;-1.66;100.00;102151.03;5051569;28;19929;-88
2022/02/12 05:20:21;;;;;;;;;;;1.10;99.90;;;-1.59;100.00;102142.69;5050980;28;19925;-88
2022/02/12 05:22:48;;;;;;;;;;;1.10;99.90;;;-1.51;100.00;102145.03;5049294;28;19932;-87
2022/02/12 05:25:15;;;;;;;;;;;1.10;99.90;;;-1.59;100.00;102137.34;5051433;28;20040;-88
2022/02/12 05:27:43;;;;;;;;;;;1.30;99.90;;;-1.56;100.00;102131.03;5049602;28;20377;-90
2022/02/12 05:30:11;;;;;;;;;;;1.10;99.90;;;-1.53;100.00;102135.34;5050819;28;19949;-87
2022/02/12 05:32:39;;;;;;;;;;;1.20;99.90;;;-1.58;100.00;102116.84;5051129;28;19932;-88
2022/02/12 05:35:07;;;;;;;;;;;1.20;99.90;;;-1.52;100.00;102126.38;5031426;28;20376;-88
2022/02/12 05:37:34;;;;;;;;;;;1.20;99.90;;;-1.50;100.00;102136.09;5041860;28;20510;-88
2022/02/12 05:40:01;;;;;;;;;;;1.20;99.90;;;-1.48;100.00;102117.34;5050023;28;19943;-90
2022/02/12 05:42:28;;;;;;;;;;;1.20;99.90;;;-1.53;100.00;102127.34;5051145;28;19933;-87
2022/02/12 05:44:55;;;;;;;;;;;1.10;99.90;;;-1.53;100.00;102120.19;5050777;28;19929;-86
2022/02/12 05:47:22;;;;;;;;;;;1.10;99.90;;;-1.62;100.00;102110.81;5049325;28;20202;-87
2022/02/12 05:52:25;;;;;;;;;;;1.10;99.90;;;-1.67;100.00;102104.78;5072207;28;20010;-87
2022/02/12 05:54:52;;;;;;;;;;;1.10;99.90;;;-1.66;100.00;102103.84;5072346;28;20023;-88
2022/02/12 05:57:20;;;;;;;;;;;1.10;99.90;;;-1.64;100.00;102099.31;5070676;28;19951;-87
2022/02/12 05:59:47;;;;;;;;;;;1.10;99.90;;;-1.62;100.00;102094.78;5052013;28;20349;-89
2022/02/12 06:02:14;;;;;;;;;;;1.10;99.90;;;-1.66;100.00;102103.84;5052222;28;19936;-88
2022/02/12 06:04:41;;;;;;;;;;;1.10;99.90;;;-1.66;100.00;102098.50;5070364;28;19928;-87
2022/02/12 06:07:09;;;;;;;;;;;1.10;99.90;;;-1.63;100.00;102101.03;5052511;28;19959;-88
2022/02/12 06:09:38;;;;;;;;;;;1.10;99.90;;;-1.65;100.00;102099.38;5069706;28;19939;-87
2022/02/12 06:12:06;;;;;;;;;;;1.10;99.90;;;-1.64;100.00;102101.09;5070190;28;19968;-87
2022/02/12 06:14:33;;;;;;;;;;;1.00;99.90;;;-1.60;100.00;102095.59;5069722;28;20001;-88
2022/02/12 06:17:00;;;;;;;;;;;1.00;99.90;;;-1.62;100.00;102084.09;5051843;28;19928;-88
2022/02/12 06:19:28;;;;;;;;;;;1.10;99.90;;;-1.67;100.00;102080.75;5052152;28;20027;-87
2022/02/12 06:21:55;;;;;;;;;;;1.00;99.90;;;-1.76;100.00;102086.50;5051701;28;20020;-85
2022/02/12 06:24:22;;;;;;;;;;;1.00;99.90;;;-1.72;100.00;102079.22;5069666;28;20277;-87
2022/02/12 06:26:56;;;;;;;;;;;1.00;99.90;;;-1.73;100.00;102088.16;5069906;28;20362;-87
2022/02/12 06:29:24;;;;;;;;;;;0.90;99.90;;;-1.78;100.00;102080.34;5065428;28;19929;-86
2022/02/12 06:31:54;;;;;;;;;;;1.00;99.90;;;-1.79;100.00;102076.84;5032015;28;20355;-87
2022/02/12 06:34:24;;;;;;;;;;;1.00;99.90;;;-1.80;100.00;102076.91;5065232;28;19964;-90
2022/02/12 06:36:51;;;;;;;;;;;1.00;99.90;;;-1.79;100.00;102075.94;5052100;28;19954;-92
2022/02/12 06:39:18;;;;;;;;;;;1.00;99.90;;;-1.77;100.00;102077.63;5053383;28;19924;-87
2022/02/12 06:41:45;;;;;;;;;;;1.00;99.90;;;-1.73;100.00;102080.16;5069244;28;19963;-88
2022/02/12 06:44:14;;;;;;;;;;;1.00;99.90;;;-1.64;100.00;102069.97;5069616;28;19928;-87
2022/02/12 06:46:42;;;;;;;;;;;1.00;99.90;;;-1.64;100.00;102074.41;5069280;28;19928;-87
2022/02/12 06:49:09;;;;;;;;;;;1.20;99.90;;;-1.72;100.00;102069.41;5051296;28;19936;-89
2022/02/12 06:51:38;;;;;;;;;;;1.00;99.90;;;-1.74;100.00;102065.09;5050889;28;19956;-88
2022/02/12 06:54:05;;;;;;;;;;;1.00;99.90;;;-1.75;100.00;102063.34;5069257;28;19935;-87
2022/02/12 06:56:33;;;;;;;;;;;1.00;99.90;;;-1.76;100.00;102070.47;5069147;28;20391;-87
2022/02/12 06:59:00;;;;;;;;;;;1.00;99.90;;;-1.73;100.00;102073.03;5051112;28;19932;-87
2022/02/12 07:01:29;;;;;;;;;;;1.00;99.90;;;-1.67;100.00;102069.22;5051281;28;19928;-87
2022/02/12 07:03:56;;;;;;;;;;;1.00;99.90;;;-1.70;100.00;102062.19;5069400;28;20016;-86
2022/02/12 07:06:24;;;;;;;;;;;1.00;99.90;;;-1.69;100.00;102060.44;5051120;28;20391;-87
2022/02/12 07:08:52;;;;;;;;;;;1.10;99.90;;;-1.66;100.00;102062.94;5069391;28;20027;-87
2022/02/12 07:11:21;;;;;;;;;;;1.10;99.90;;;-1.66;100.00;102060.28;5053172;28;20447;-91
2022/02/12 07:13:55;;;;;;;;;;;1.10;99.90;;;-1.57;100.00;102060.72;5055013;28;19990;-93
2022/02/12 07:16:25;;;;;;;;;;;1.10;99.90;;;-1.46;100.00;102062.94;5054462;28;19931;-93
2022/02/12 07:59:59;;;;;;;;;;;1.50;99.90;;;-0.85;100.00;102037.00;5085628;28;19928;-88
2022/02/12 08:02:30;;;;;;;;;;;1.50;99.90;;;-0.80;100.00;102037.63;5054489;28;19967;-91
2022/02/12 08:05:34;;;;;;;;;;;1.60;99.90;;;-0.75;100.00;102048.97;5061654;28;19971;-91
2022/02/12 08:08:03;;;;;;;;;;;1.60;99.90;;;-0.67;100.00;102040.56;5071955;28;19993;-92
2022/02/12 08:13:15;;;;;;;;;;;1.70;99.90;;;-0.60;100.00;102036.66;5080328;28;20035;-86
2022/02/12 08:15:43;;;;;;;;;;;1.70;99.90;;;-0.47;100.00;102032.44;5065134;28;19955;-85
2022/02/12 08:18:10;;;;;;;;;;;1.80;99.90;;;-0.37;100.00;102034.69;5083579;28;19935;-82
2022/02/12 08:20:37;;;;;;;;;;;1.80;99.90;;;-0.33;100.00;102037.09;5088625;28;20019;-84
2022/02/12 08:23:05;;;;;;;;;;;1.80;99.90;;;-0.25;100.00;102028.69;5090927;28;19928;-80
2022/02/12 08:25:32;;;;;;;;;;;1.80;99.90;;;-0.17;100.00;102029.19;5092710;28;19928;-87
2022/02/12 08:27:59;;;;;;;;;;;1.90;99.90;;;-0.12;100.00;102021.78;5092026;28;20020;-87
2022/02/12 08:30:26;;;;;;;;;;;1.90;99.90;;;-0.06;100.00;102016.13;5073711;28;19935;-86
2022/02/12 08:32:55;;;;;;;;;;;2.00;99.90;;;0.03;100.00;102020.13;5074509;28;19980;-91
2022/02/12 08:35:22;;;;;;;;;;;2.00;99.90;;;0.07;100.00;102015.50;5092791;28;19997;-86
2022/02/12 08:37:49;;;;;;;;;;;2.10;99.90;;;0.14;100.00;102007.06;5092426;28;20296;-87
2022/02/12 08:40:19;;;;;;;;;;;2.20;99.90;;;0.29;100.00;102009.88;5091190;28;19974;-88
2022/02/12 08:42:48;;;;;;;;;;;2.30;99.90;;;0.36;100.00;102012.16;5094055;28;19924;-92
2022/02/12 08:45:16;;;;;;;;;;;2.30;99.90;;;0.41;100.00;101998.50;5075835;28;20396;-89
2022/02/12 08:47:44;;;;;;;;;;;2.30;99.90;;;0.46;100.00;102007.19;5074144;28;19960;-89
2022/02/12 08:50:14;;;;;;;;;;;2.40;99.90;;;0.56;100.00;102007.53;5073888;28;19924;-88
2022/02/12 08:52:41;;;;;;;;;;;2.40;99.90;;;0.64;100.00;102010.66;5073427;28;19967;-87
2022/02/12 08:55:09;;;;;;;;;;;2.50;99.90;;;0.71;100.00;101995.13;5092206;28;19968;-90
2022/02/12 08:57:36;;;;;;;;;;;2.50;99.90;;;0.81;100.00;101999.03;5091548;28;20334;-84
2022/02/12 09:00:05;;;;;;;;;;;2.60;99.90;;;0.89;100.00;101994.09;5091450;28;20374;-86
2022/02/12 09:02:32;;;;;;;;;;;2.70;99.90;;;0.98;100.00;101982.84;5085973;28;20001;-84
2022/02/12 09:04:59;;;;;;;;;;;2.80;99.90;;;1.10;100.00;101986.66;5091199;28;19928;-80
2022/02/12 09:07:28;;;;;;;;;;;2.80;99.90;;;1.21;100.00;101990.56;5090869;28;19928;-88
2022/02/12 09:09:55;;;;;;;;;;;2.90;99.90;;;1.28;100.00;101974.03;5071483;28;19963;-87
2022/02/12 09:12:22;;;;;;;;;;;3.00;99.90;;;1.38;100.00;101987.78;5090824;28;19928;-86
2022/02/12 09:14:49;;;;;;;;;;;3.10;99.90;;;1.46;99.35;101988.19;5071934;28;19958;-82
2022/02/12 09:17:16;;;;;;;;;;;3.10;99.90;;;1.54;99.82;101975.22;5090593;28;19928;-84
2022/02/12 09:19:43;;;;;;;;;;;3.20;99.90;;;1.61;99.27;101974.84;5090800;28;19931;-85
2022/02/12 09:22:10;;;;;;;;;;;3.30;99.90;;;1.66;99.14;101972.75;5091164;28;19930;-84
2022/02/12 09:24:39;;;;;;;;;;;3.30;99.90;;;1.73;98.17;101968.72;5091137;28;19928;-84
2022/02/12 09:27:06;;;;;;;;;;;3.40;99.90;;;1.78;96.73;101966.66;5091081;28;19971;-84
2022/02/12 09:29:33;;;;;;;;;;;3.50;99.90;;;1.85;96.68;101962.66;5072143;28;19960;-86
2022/02/12 09:32:00;;;;;;;;;;;3.50;99.90;;;1.90;95.96;101957.84;5091074;28;19928;-85
2022/02/12 09:34:27;;;;;;;;;;;3.60;99.90;;;1.96;93.99;101964.66;5089564;28;19928;-87
2022/02/12 09:36:54;;;;;;;;;;;3.60;99.90;;;2.00;93.88;101949.22;5095519;28;19932;-87
2022/02/12 09:39:21;;;;;;;;;;;3.70;99.90;;;2.05;92.99;101949.81;5075886;28;19932;-85
2022/02/12 09:41:50;;;;;;;;;;;3.70;99.90;;;2.11;92.74;101946.75;5083677;28;20327;-85
2022/02/12 09:44:17;;;;;;;;;;;3.80;99.90;;;2.14;92.03;101947.44;5075766;28;19986;-85
2022/02/12 09:47:25;;;;;;;;;;;3.80;99.90;;;2.24;94.44;101938.81;5088662;28;19958;-86
2022/02/12 09:49:56;;;;;;;;;;;3.90;99.90;;;2.30;92.23;101931.25;5069273;28;19960;-85
2022/02/12 09:52:24;;;;;;;;;;;3.90;99.10;;;2.37;91.30;101931.72;5070545;28;19932;-85
2022/02/12 09:54:51;;;;;;;;;;;4.00;99.00;;;2.43;90.89;101927.78;5069747;28;19955;-86
2022/02/12 09:57:19;;;;;;;;;;;4.10;99.20;;;2.47;89.51;101926.63;5063828;28;19928;-87
2022/02/12 09:59:46;;;;;;;;;;;4.10;98.00;;;2.53;90.19;101918.16;5067683;28;20035;-86
2022/02/12 10:02:17;;;;;;;;;;;4.20;98.20;;;2.59;90.69;101914.22;5060291;28;19980;-85
2022/02/12 10:04:44;;;;;;;;;;;4.20;98.20;;;2.63;90.31;101916.63;5072412;28;20022;-87
2022/02/12 10:07:22;;;;;;;;;;;4.30;98.00;;;2.70;88.36;101907.22;5070291;28;20338;-86
2022/02/12 10:10:10;;;;;;;;;;;4.30;97.80;;;2.75;89.29;101909.59;5069109;28;19935;-86
2022/02/12 10:12:38;;;;;;;;;;;4.40;96.80;;;2.82;86.95;101905.56;5089292;28;19967;-87
2022/02/12 10:15:11;;;;;;;;;;;4.40;95.30;;;2.87;87.48;101906.09;5090569;28;19951;-88
2022/02/12 10:17:50;;;;;;;;;;;4.50;95.60;;;2.94;86.59;101903.88;5070891;28;19935;-87
2022/02/12 10:20:23;;;;;;;;;;;4.50;95.50;;;3.02;85.85;101906.91;5069387;28;19947;-87
2022/02/12 10:22:50;;;;;;;;;;;4.60;95.30;;;3.08;86.51;101893.06;5087694;28;19970;-84
2022/02/12 10:25:19;;;;;;;;;;;4.70;95.50;;;3.19;85.85;101899.56;5090248;28;20431;-81
2022/02/12 10:27:50;;;;;;;;;;;4.80;94.40;;;3.26;85.46;101890.13;5088909;28;20015;-80
2022/02/12 10:30:18;;;;;;;;;;;4.80;95.60;;;3.33;84.86;101891.41;5087428;28;20378;-79
2022/02/12 10:32:47;;;;;;;;;;;4.90;93.20;;;3.38;83.25;101880.34;5082270;28;19932;-81
2022/02/12 10:35:14;;;;;;;;;;;4.90;93.90;;;3.40;83.68;101879.28;5068636;28;19935;-80
2022/02/12 10:37:42;;;;;;;;;;;5.00;92.00;;;3.42;82.52;101866.56;5073770;28;20611;-81
2022/02/12 10:40:10;;;;;;;;;;;5.00;91.00;;;3.46;83.13;101868.09;5085721;28;20569;-84
2022/02/12 10:42:43;;;;;;;;;;;5.10;91.80;;;3.48;82.33;101866.19;5086797;28;19927;-85
2022/02/12 10:45:13;;;;;;;;;;;5.10;91.50;;;3.45;79.91;101863.69;5087331;28;19932;-84
2022/02/12 10:47:42;;;;;;;;;;;5.10;91.20;;;3.46;80.22;101862.69;5089553;28;19941;-84
2022/02/12 10:50:10;;;;;;;;;;;5.10;90.80;;;3.45;80.37;101855.63;5089464;28;20312;-85
2022/02/12 10:52:43;;;;;;;;;;;5.10;91.00;;;3.43;80.72;101851.31;5071175;28;19935;-85
2022/02/12 10:55:29;;;;;;;;;;;5.10;91.90;;;3.46;81.50;101849.25;5089851;28;19935;-86
2022/02/12 10:57:57;;;;;;;;;;;5.10;92.60;;;3.46;81.84;101845.69;5087407;28;19928;-86
2022/02/12 11:00:30;;;;;;;;;;;5.10;92.10;;;3.44;81.02;101836.88;5069133;28;19928;-84
2022/02/12 11:02:59;;;;;;;;;;;5.10;92.60;;;3.44;82.06;101837.72;5069252;28;20124;-84
2022/02/12 11:05:27;;;;;;;;;;;5.10;92.10;;;3.47;81.07;101824.06;5069351;28;19947;-84
2022/02/12 11:07:54;;;;;;;;;;;5.10;91.80;;;3.52;78.96;101827.31;5059600;28;20040;-84
2022/02/12 11:10:22;;;;;;;;;;;5.20;90.40;;;3.57;77.30;101824.28;5089187;28;19931;-84
2022/02/12 11:12:49;;;;;;;;;;;5.20;89.60;;;3.64;77.81;101819.34;5070604;28;19928;-84
2022/02/12 11:15:17;;;;;;;;;;;5.30;89.60;;;3.66;76.91;101820.09;5089525;28;20015;-79
2022/02/12 11:17:47;;;;;;;;;;;5.30;89.50;;;3.70;79.88;101821.59;5089316;28;20028;-83
2022/02/12 11:20:15;;;;;;;;;;;5.30;90.60;;;3.70;78.31;101817.06;5089187;28;19934;-84
2022/02/12 11:22:43;;;;;;;;;;;5.30;90.30;;;3.76;76.86;101813.09;5089188;28;19974;-82
2022/02/12 11:25:35;;;;;;;;;;;5.40;89.00;;;3.80;77.28;101806.50;5089501;28;19928;-82
2022/02/12 11:28:08;;;;;;;;;;;5.40;89.60;;;3.83;77.42;101806.31;5089217;28;19928;-83
2022/02/12 11:30:37;;;;;;;;;;;5.50;88.40;;;3.88;76.70;101797.88;5089282;28;20001;-82
2022/02/12 11:33:17;;;;;;;;;;;5.60;89.60;;;3.86;76.01;101795.31;5063119;28;20505;-82
2022/02/12 11:36:05;;;;;;;;;;;5.50;87.50;;;3.87;75.26;101782.72;5069013;28;20503;-82
2022/02/12 11:38:38;;;;;;;;;;;5.50;85.30;;;3.88;74.48;101777.22;5069418;28;20408;-82
2022/02/12 11:41:20;;;;;;;;;;;5.60;86.50;;;3.91;73.89;101770.75;5073104;28;19929;-82
2022/02/12 11:43:47;;;;;;;;;;;5.60;86.10;;;3.89;74.01;101762.78;5073098;28;20388;-84
2022/02/12 11:46:17;;;;;;;;;;;5.60;85.60;;;3.95;74.50;101766.00;5072383;28;19932;-83
2022/02/12 11:48:44;;;;;;;;;;;5.60;86.70;;;3.92;74.00;101757.19;5085561;28;20396;-83
2022/02/12 11:51:12;;;;;;;;;;;5.60;86.40;;;3.95;73.67;101756.09;5107987;22;19934;-89
2022/02/12 11:53:43;;;;;;;;;;;5.60;85.20;;;3.97;72.88;101745.22;5093332;28;19971;-89
2022/02/12 11:56:43;;;;;;;;;;;5.60;85.30;;;4.01;73.09;101749.41;5084982;28;20397;-89
2022/02/12 11:59:11;;;;;;;;;;;5.60;85.00;;;4.06;71.20;101741.84;5103667;28;19928;-90
2022/02/12 12:01:50;;;;;;;;;;;5.70;85.20;;;4.12;70.97;101736.00;5110796;28;19928;-89
2022/02/12 12:04:21;;;;;;;;;;;5.70;84.90;;;4.10;72.00;101732.56;5111555;28;19924;-89
2022/02/12 12:07:09;;;;;;;;;;;5.70;84.60;;;4.14;71.50;101733.22;5112475;28;19935;-89
2022/02/12 12:09:58;;;;;;;;;;;5.70;83.40;;;4.13;72.46;101716.16;5111313;28;20399;-88
2022/02/12 12:12:25;;;;;;;;;;;5.80;83.30;;;4.19;70.53;101715.72;5110168;28;19928;-83
2022/02/12 12:14:54;;;;;;;;;;;5.80;83.50;;;4.21;71.17;101713.78;5111156;28;19923;-88
2022/02/12 12:17:25;;;;;;;;;;;5.80;84.30;;;4.23;71.48;101701.06;5113888;27;19931;-89